Terminal Aerodrome Forecast
Issued by NWS Burlington, VT

Home | Current Version | Previous Version | Text Only | Print | Product List | Glossary On
Versions: 1 2 3 4 5 6 7 8 9 10 11 12 13 14 15
000
FTUS41 KBTV 181100
TAFBTV
TAF
KBTV 181135Z 1812/1912 35008KT P6SM VCSH OVC015
     FM181400 34008KT P6SM BKN025 OVC040
     FM181700 34008KT P6SM SCT050
     FM190000 35005KT P6SM SKC=

USA.gov is the U.S. government's official web portal to all federal, state and local government web resources and services.